createdAt,value
2022-10-08T00:01:31.485Z,18.11
2022-10-08T00:03:59.500Z,18.40
2022-10-08T00:06:33.693Z,18.22
2022-10-08T00:09:07.418Z,18.28
2022-10-08T00:11:39.844Z,18.13
2022-10-08T00:14:09.831Z,18.06
2022-10-08T00:16:40.196Z,18.16
2022-10-08T00:19:16.531Z,18.13
2022-10-08T00:21:45.876Z,18.20
2022-10-08T00:24:20.133Z,18.13
2022-10-08T00:26:48.032Z,17.89
2022-10-08T00:29:19.308Z,17.94
2022-10-08T00:31:49.319Z,18.01
2022-10-08T00:34:20.235Z,18.11
2022-10-08T00:36:53.188Z,18.30
2022-10-08T00:39:23.332Z,18.27
2022-10-08T00:41:53.710Z,18.25
2022-10-08T00:44:54.922Z,18.29
2022-10-08T00:47:33.427Z,18.20
2022-10-08T00:50:08.919Z,17.99
2022-10-08T00:52:43.647Z,17.95
2022-10-08T00:55:14.891Z,17.90
2022-10-08T00:57:48.163Z,17.91
2022-10-08T01:00:20.321Z,18.00
2022-10-08T01:02:49.062Z,18.08
2022-10-08T01:05:23.848Z,17.91
2022-10-08T01:08:03.881Z,17.62
2022-10-08T01:10:59.456Z,17.83
2022-10-08T01:14:12.656Z,18.03
2022-10-08T01:17:10.685Z,17.84
2022-10-08T01:20:01.529Z,17.53
2022-10-08T01:22:53.918Z,17.29
2022-10-08T01:25:39.907Z,17.09
2022-10-08T01:28:07.727Z,16.82
2022-10-08T01:30:39.952Z,16.80
2022-10-08T01:33:17.976Z,17.42
2022-10-08T01:35:54.249Z,16.67
2022-10-08T01:38:25.320Z,16.39
2022-10-08T01:41:00.555Z,16.40
2022-10-08T01:43:35.652Z,16.47
2022-10-08T01:46:12.358Z,16.59
2022-10-08T01:48:45.418Z,16.54
2022-10-08T01:51:19.928Z,16.39
2022-10-08T01:53:56.182Z,16.30
2022-10-08T01:56:28.325Z,16.14
2022-10-08T01:59:07.278Z,16.07
2022-10-08T02:01:49.996Z,16.06
2022-10-08T02:04:35.319Z,16.05
2022-10-08T02:07:11.892Z,16.12
2022-10-08T02:09:48.516Z,16.15
2022-10-08T02:12:16.639Z,16.03
2022-10-08T02:14:49.105Z,15.97
2022-10-08T02:17:50.567Z,15.91
2022-10-08T02:20:37.840Z,16.00
2022-10-08T02:24:09.879Z,16.11
2022-10-08T02:26:46.767Z,15.86
2022-10-08T02:29:29.149Z,15.80
2022-10-08T02:32:02.820Z,15.53
2022-10-08T02:34:35.303Z,15.59
2022-10-08T02:37:43.106Z,15.72
2022-10-08T02:40:15.304Z,15.62
2022-10-08T02:42:52.561Z,15.51
2022-10-08T02:45:33.526Z,15.39
2022-10-08T02:48:18.585Z,15.32
2022-10-08T02:50:51.576Z,15.55
2022-10-08T02:53:21.079Z,15.26
2022-10-08T02:56:04.980Z,14.91
2022-10-08T02:58:33.384Z,15.25
2022-10-08T03:01:10.172Z,15.05
2022-10-08T03:03:44.772Z,15.09
2022-10-08T03:06:16.236Z,15.11
2022-10-08T03:08:49.398Z,15.35
2022-10-08T03:11:19.561Z,15.36
2022-10-08T03:13:57.614Z,15.22
2022-10-08T03:16:32.102Z,15.17
2022-10-08T03:19:03.511Z,15.08
2022-10-08T03:21:33.017Z,15.20
2022-10-08T03:24:27.283Z,15.39
2022-10-08T03:26:55.287Z,15.52
2022-10-08T03:29:24.278Z,15.16
2022-10-08T03:31:52.080Z,15.18
2022-10-08T03:34:24.545Z,15.22
2022-10-08T03:36:55.339Z,15.18
2022-10-08T03:39:23.152Z,15.41
2022-10-08T03:41:51.126Z,15.36
2022-10-08T03:44:19.051Z,15.43
2022-10-08T03:46:46.750Z,15.78
2022-10-08T03:49:14.820Z,15.97
2022-10-08T03:51:44.806Z,15.73
2022-10-08T03:54:12.614Z,15.71
2022-10-08T03:56:43.999Z,15.70
2022-10-08T03:59:12.026Z,15.90
2022-10-08T04:01:39.903Z,15.56
2022-10-08T04:04:08.945Z,15.54
2022-10-08T04:06:36.840Z,15.39
2022-10-08T04:09:04.708Z,15.04
2022-10-08T04:11:32.546Z,15.03
2022-10-08T04:14:01.506Z,14.98
2022-10-08T04:16:29.492Z,14.74
2022-10-08T04:19:01.874Z,14.77
2022-10-08T04:21:30.800Z,14.84
2022-10-08T04:23:59.634Z,14.67
2022-10-08T04:26:27.547Z,15.01
2022-10-08T04:28:55.601Z,15.59
2022-10-08T04:31:24.189Z,15.86
2022-10-08T04:33:52.442Z,15.73
2022-10-08T04:36:23.212Z,15.69
2022-10-08T04:38:54.371Z,15.66
2022-10-08T04:41:24.836Z,15.71
2022-10-08T04:43:54.202Z,15.80
2022-10-08T04:46:26.079Z,15.84
2022-10-08T04:49:21.695Z,15.86
2022-10-08T04:52:12.613Z,15.67
2022-10-08T04:54:47.710Z,15.80
2022-10-08T04:57:19.603Z,15.69
2022-10-08T05:00:18.327Z,15.98
2022-10-08T05:02:52.246Z,15.85
2022-10-08T05:05:28.568Z,15.88
2022-10-08T05:08:27.734Z,15.85
2022-10-08T05:13:41.877Z,15.99
2022-10-08T05:16:11.970Z,15.90
2022-10-08T05:18:41.288Z,16.05
2022-10-08T05:21:13.625Z,15.78
2022-10-08T05:23:42.963Z,15.65
2022-10-08T05:26:18.751Z,15.96
2022-10-08T05:28:48.096Z,15.88
2022-10-08T05:31:16.553Z,15.61
2022-10-08T05:33:44.646Z,15.38
2022-10-08T05:36:32.832Z,15.55
2022-10-08T05:39:01.988Z,15.60
2022-10-08T05:41:36.924Z,15.55
2022-10-08T05:44:05.949Z,15.81
2022-10-08T05:46:36.193Z,15.99
2022-10-08T05:49:06.129Z,15.68
2022-10-08T05:51:34.703Z,15.58
2022-10-08T05:54:02.258Z,15.72
2022-10-08T05:56:31.647Z,16.05
2022-10-08T05:58:59.422Z,15.98
2022-10-08T06:01:29.531Z,15.99
2022-10-08T06:04:08.156Z,16.33
2022-10-08T06:06:37.994Z,16.10
2022-10-08T06:09:06.269Z,16.41
2022-10-08T06:11:36.094Z,16.47
2022-10-08T06:14:06.194Z,16.82
2022-10-08T06:16:35.138Z,16.74
2022-10-08T06:19:03.893Z,16.89
2022-10-08T06:21:32.077Z,17.05
2022-10-08T06:24:11.788Z,17.18
2022-10-08T06:26:41.812Z,17.18
2022-10-08T06:29:17.395Z,17.20
2022-10-08T06:31:45.101Z,17.41
2022-10-08T06:34:12.813Z,17.45
2022-10-08T06:36:40.720Z,17.50
2022-10-08T06:39:11.715Z,17.55
2022-10-08T06:41:39.320Z,17.61
2022-10-08T06:44:10.217Z,17.56
2022-10-08T06:46:37.842Z,17.68
2022-10-08T06:49:06.411Z,17.49
2022-10-08T06:51:34.513Z,17.60
2022-10-08T06:54:07.486Z,17.76
2022-10-08T06:56:37.956Z,18.46
2022-10-08T06:59:06.348Z,18.75
2022-10-08T07:01:35.531Z,18.49
2022-10-08T07:04:05.236Z,18.59
2022-10-08T07:06:33.213Z,18.74
2022-10-08T07:09:02.199Z,18.80
2022-10-08T07:11:32.162Z,19.07
2022-10-08T07:14:00.551Z,18.79
2022-10-08T07:16:28.785Z,18.73
2022-10-08T07:18:58.761Z,18.96
2022-10-08T07:21:27.874Z,19.77
2022-10-08T07:23:55.453Z,21.42
2022-10-08T07:26:25.931Z,22.80
2022-10-08T07:28:59.293Z,22.66
2022-10-08T07:31:30.278Z,24.01
2022-10-08T07:33:59.257Z,23.62
2022-10-08T07:36:38.940Z,25.21
2022-10-08T07:39:11.926Z,23.75
2022-10-08T07:41:40.086Z,24.17
2022-10-08T07:44:08.563Z,26.30
2022-10-08T07:46:38.098Z,25.43
2022-10-08T07:49:05.837Z,24.53
2022-10-08T07:51:34.420Z,23.48
2022-10-08T07:54:27.187Z,23.05
2022-10-08T08:00:25.231Z,26.84
2022-10-08T08:02:58.550Z,27.00
2022-10-08T08:05:38.501Z,28.99
2022-10-08T08:08:59.345Z,29.23
2022-10-08T08:15:06.662Z,31.05
2022-10-08T08:18:21.348Z,31.10
2022-10-08T08:28:18.760Z,29.73
2022-10-08T08:30:46.449Z,30.28
2022-10-08T08:33:32.331Z,30.27
2022-10-08T08:35:59.709Z,31.48
2022-10-08T08:38:26.999Z,32.07
2022-10-08T08:40:57.384Z,30.08
2022-10-08T08:43:25.303Z,30.37
2022-10-08T08:45:52.799Z,29.93
2022-10-08T08:48:26.722Z,29.01
2022-10-08T08:50:58.768Z,27.92
2022-10-08T08:53:27.611Z,30.18
2022-10-08T08:55:58.722Z,30.77
2022-10-08T08:58:41.477Z,28.16
2022-10-08T09:01:08.891Z,28.93
2022-10-08T09:03:43.395Z,28.99
2022-10-08T09:06:14.645Z,29.05
2022-10-08T09:08:53.557Z,30.10
2022-10-08T09:11:22.429Z,30.92
2022-10-08T09:14:05.922Z,29.71
2022-10-08T09:16:35.614Z,29.47
2022-10-08T09:19:03.013Z,30.97
2022-10-08T09:21:34.712Z,32.65
2022-10-08T09:24:02.131Z,32.09
2022-10-08T09:26:36.263Z,32.57
2022-10-08T09:29:05.053Z,32.93
2022-10-08T09:31:38.188Z,33.76
2022-10-08T09:34:13.130Z,32.85
2022-10-08T09:36:43.481Z,33.72
2022-10-08T09:39:20.983Z,32.10
2022-10-08T09:42:04.613Z,31.32
2022-10-08T09:45:03.728Z,31.27
2022-10-08T09:47:31.400Z,32.00
2022-10-08T09:50:05.815Z,32.12
2022-10-08T09:52:34.819Z,32.47
2022-10-08T09:55:08.223Z,29.18
2022-10-08T09:57:44.857Z,31.13
2022-10-08T10:00:24.482Z,30.62
2022-10-08T10:02:56.306Z,29.36
2022-10-08T10:05:28.737Z,29.04
2022-10-08T10:07:56.059Z,28.85
2022-10-08T10:10:35.810Z,28.06
2022-10-08T10:13:14.069Z,27.53
2022-10-08T10:15:46.917Z,28.29
2022-10-08T10:18:28.350Z,29.00
2022-10-08T10:21:11.543Z,28.58
2022-10-08T10:23:46.346Z,28.84
2022-10-08T10:26:21.868Z,28.79
2022-10-08T10:29:02.984Z,28.96
2022-10-08T10:31:52.613Z,27.33
2022-10-08T10:34:27.444Z,28.07
2022-10-08T10:36:59.059Z,28.92
2022-10-08T10:39:42.079Z,29.23
2022-10-08T10:42:19.121Z,28.94
2022-10-08T10:44:53.705Z,27.66
2022-10-08T10:47:27.093Z,28.27
2022-10-08T10:49:58.409Z,28.13
2022-10-08T10:52:43.751Z,28.13
2022-10-08T10:55:29.398Z,28.26
2022-10-08T10:58:15.180Z,28.98
2022-10-08T11:01:03.722Z,28.86
2022-10-08T11:03:53.307Z,28.91
2022-10-08T11:06:39.193Z,28.38
2022-10-08T11:09:16.095Z,28.81
2022-10-08T11:11:58.188Z,28.55
2022-10-08T11:15:12.782Z,28.41
2022-10-08T11:17:45.693Z,28.04
2022-10-08T11:20:18.720Z,28.01
2022-10-08T11:22:57.915Z,28.05
2022-10-08T11:26:16.414Z,28.43
2022-10-08T11:29:09.619Z,28.16
2022-10-08T11:31:51.441Z,27.51
2022-10-08T11:34:37.347Z,27.99
2022-10-08T11:37:16.263Z,27.95
2022-10-08T11:39:49.891Z,27.39
2022-10-08T11:42:48.167Z,27.67
2022-10-08T11:45:25.811Z,27.88
2022-10-08T11:47:58.412Z,27.92
2022-10-08T11:50:36.172Z,27.51
2022-10-08T11:53:15.498Z,27.32
2022-10-08T11:55:53.439Z,27.77
2022-10-08T11:58:30.654Z,27.09
2022-10-08T12:01:09.961Z,27.71
2022-10-08T12:03:40.810Z,27.52
2022-10-08T12:06:28.738Z,28.01
2022-10-08T12:08:57.342Z,28.35
2022-10-08T12:11:37.462Z,27.89
2022-10-08T12:14:17.120Z,28.04
2022-10-08T12:16:47.422Z,28.08
2022-10-08T12:19:35.813Z,27.60
2022-10-08T12:22:15.321Z,27.78
2022-10-08T12:24:50.239Z,28.22
2022-10-08T12:27:18.033Z,27.77
2022-10-08T12:30:13.903Z,28.14
2022-10-08T12:32:44.313Z,28.09
2022-10-08T12:35:41.623Z,28.32
2022-10-08T12:38:31.194Z,28.17
2022-10-08T12:41:23.398Z,28.17
2022-10-08T12:44:19.649Z,28.22
2022-10-08T12:47:16.517Z,27.80
2022-10-08T12:49:52.282Z,28.45
2022-10-08T12:52:21.100Z,28.48
2022-10-08T12:55:09.874Z,28.87
2022-10-08T12:57:40.612Z,28.82
2022-10-08T13:00:20.930Z,27.75
2022-10-08T13:03:06.157Z,28.09
2022-10-08T13:05:37.607Z,28.04
2022-10-08T13:08:19.100Z,28.13
2022-10-08T13:10:47.077Z,27.28
2022-10-08T13:13:38.228Z,27.79
2022-10-08T13:16:08.111Z,27.50
2022-10-08T13:18:37.122Z,27.73
2022-10-08T13:21:10.319Z,27.46
2022-10-08T13:23:40.390Z,27.56
2022-10-08T13:26:45.015Z,27.98
2022-10-08T13:29:18.395Z,27.72
2022-10-08T13:32:11.974Z,27.95
2022-10-08T13:35:00.758Z,28.15
2022-10-08T13:37:45.324Z,28.17
2022-10-08T13:40:13.202Z,28.32
2022-10-08T13:42:44.701Z,28.47
2022-10-08T13:45:17.289Z,27.96
2022-10-08T13:47:48.399Z,27.50
2022-10-08T13:50:21.374Z,27.88
2022-10-08T13:52:54.782Z,28.03
2022-10-08T13:55:31.436Z,28.17
2022-10-08T13:58:02.272Z,28.04
2022-10-08T14:00:33.572Z,27.49
2022-10-08T14:03:01.782Z,27.29
2022-10-08T14:05:31.810Z,27.40
2022-10-08T14:08:05.654Z,27.60
2022-10-08T14:10:33.428Z,28.00
2022-10-08T14:13:00.923Z,27.95
2022-10-08T14:15:28.484Z,27.92
2022-10-08T14:17:56.014Z,27.99
2022-10-08T14:20:23.671Z,27.93
2022-10-08T14:22:51.355Z,27.76
2022-10-08T14:25:31.221Z,28.05
2022-10-08T14:28:00.967Z,28.31
2022-10-08T14:30:28.762Z,27.60
2022-10-08T14:32:56.526Z,27.27
2022-10-08T14:35:24.135Z,27.30
2022-10-08T14:37:51.690Z,27.65
2022-10-08T14:40:22.521Z,27.69
2022-10-08T14:42:50.712Z,27.78
2022-10-08T14:45:18.602Z,27.70
2022-10-08T14:47:46.359Z,27.44
2022-10-08T14:50:14.091Z,27.46
2022-10-08T14:52:44.465Z,27.08
2022-10-08T14:55:14.235Z,27.32
2022-10-08T14:57:41.748Z,27.42
2022-10-08T15:00:13.930Z,27.41
2022-10-08T15:02:42.903Z,27.40
2022-10-08T15:05:10.375Z,27.30
2022-10-08T15:07:37.901Z,27.20
2022-10-08T15:10:05.721Z,27.18
2022-10-08T15:12:33.145Z,27.08
2022-10-08T15:15:00.563Z,27.15
2022-10-08T15:17:27.960Z,27.14
2022-10-08T15:19:56.489Z,27.36
2022-10-08T15:22:30.876Z,27.20
2022-10-08T15:24:58.458Z,27.31
2022-10-08T15:27:31.767Z,26.98
2022-10-08T15:29:59.120Z,27.04
2022-10-08T15:32:30.376Z,27.09
2022-10-08T15:34:58.292Z,26.80
2022-10-08T15:37:25.694Z,26.79
2022-10-08T15:39:53.026Z,26.71
2022-10-08T15:42:20.347Z,26.34
2022-10-08T15:44:47.886Z,26.41
2022-10-08T15:47:16.528Z,26.39
2022-10-08T15:49:45.903Z,26.29
2022-10-08T15:52:19.550Z,26.33
2022-10-08T15:54:47.533Z,26.17
2022-10-08T15:57:19.747Z,26.02
2022-10-08T15:59:47.207Z,26.05
2022-10-08T16:02:17.354Z,26.03
2022-10-08T16:04:47.272Z,25.96
2022-10-08T16:07:15.121Z,25.87
2022-10-08T16:09:42.625Z,25.80
2022-10-08T16:12:10.314Z,25.57
2022-10-08T16:14:37.773Z,25.63
2022-10-08T16:17:05.357Z,25.41
2022-10-08T16:19:32.898Z,25.24
2022-10-08T16:22:01.387Z,25.22
2022-10-08T16:24:29.022Z,25.16
2022-10-08T16:26:56.505Z,24.85
2022-10-08T16:29:24.090Z,24.86
2022-10-08T16:31:51.630Z,24.90
2022-10-08T16:34:22.703Z,24.74
2022-10-08T16:36:51.407Z,24.80
2022-10-08T16:39:21.376Z,24.70
2022-10-08T16:41:51.850Z,24.67
2022-10-08T16:44:20.985Z,24.62
2022-10-08T16:46:51.472Z,24.32
2022-10-08T16:49:24.578Z,24.37
2022-10-08T16:52:01.555Z,24.27
2022-10-08T16:54:29.423Z,24.37
2022-10-08T16:56:57.826Z,24.45
2022-10-08T16:59:27.347Z,24.23
2022-10-08T17:01:56.936Z,24.36
2022-10-08T17:04:26.155Z,23.95
2022-10-08T17:06:56.599Z,23.33
2022-10-08T17:09:24.233Z,23.02
2022-10-08T17:11:52.283Z,23.17
2022-10-08T17:14:19.810Z,23.26
2022-10-08T17:16:49.598Z,23.16
2022-10-08T17:19:17.531Z,23.44
2022-10-08T17:21:45.573Z,23.20
2022-10-08T17:24:13.388Z,23.17
2022-10-08T17:26:42.015Z,23.29
2022-10-08T17:29:11.207Z,23.16
2022-10-08T17:31:39.623Z,22.95
2022-10-08T17:34:07.769Z,23.17
2022-10-08T17:36:37.938Z,23.26
2022-10-08T17:39:08.561Z,22.79
2022-10-08T17:41:38.109Z,22.63
2022-10-08T17:44:15.576Z,22.65
2022-10-08T17:46:46.250Z,22.74
2022-10-08T17:49:17.475Z,22.97
2022-10-08T17:52:03.637Z,22.70
2022-10-08T17:54:31.214Z,22.68
2022-10-08T17:57:00.014Z,22.80
2022-10-08T17:59:28.647Z,22.71
2022-10-08T18:01:56.566Z,22.51
2022-10-08T18:04:24.146Z,22.61
2022-10-08T18:06:51.644Z,22.36
2022-10-08T18:09:20.954Z,22.26
2022-10-08T18:11:52.120Z,22.36
2022-10-08T18:14:22.527Z,22.18
2022-10-08T18:16:51.551Z,22.40
2022-10-08T18:19:19.349Z,22.51
2022-10-08T18:21:47.173Z,22.29
2022-10-08T18:24:18.539Z,22.43
2022-10-08T18:26:46.848Z,22.62
2022-10-08T18:29:16.314Z,22.60
2022-10-08T18:31:44.777Z,22.53
2022-10-08T18:34:15.407Z,22.42
2022-10-08T18:36:43.545Z,22.58
2022-10-08T18:39:13.557Z,22.57
2022-10-08T18:44:27.223Z,22.70
